createdAt,value
2019-03-26T00:01:49.268Z,1.10
2019-03-26T00:04:19.442Z,1.00
2019-03-26T00:06:49.657Z,0.97
2019-03-26T00:09:19.239Z,1.10
2019-03-26T00:11:48.850Z,1.00
2019-03-26T00:14:18.846Z,1.13
2019-03-26T00:16:48.662Z,1.47
2019-03-26T00:19:18.524Z,0.83
2019-03-26T00:21:49.772Z,0.93
2019-03-26T00:24:20.083Z,0.90
2019-03-26T00:26:49.786Z,0.77
2019-03-26T00:29:19.847Z,1.20
2019-03-26T00:31:50.658Z,0.60
2019-03-26T00:34:20.525Z,1.00
2019-03-26T00:36:50.458Z,1.47
2019-03-26T00:39:20.091Z,0.80
2019-03-26T00:41:49.678Z,1.07
2019-03-26T00:44:19.562Z,1.30
2019-03-26T00:46:50.031Z,0.97
2019-03-26T00:49:19.925Z,0.90
2019-03-26T00:51:49.550Z,0.80
2019-03-26T00:54:19.165Z,0.87
2019-03-26T00:56:48.742Z,0.87
2019-03-26T00:59:19.779Z,1.17
2019-03-26T01:01:49.722Z,1.27
2019-03-26T01:04:31.832Z,1.10
2019-03-26T01:06:50.947Z,0.97
2019-03-26T01:09:20.466Z,1.00
2019-03-26T01:11:50.063Z,1.40
2019-03-26T01:14:21.073Z,0.83
2019-03-26T01:16:50.843Z,0.97
2019-03-26T01:19:20.622Z,0.87
2019-03-26T01:21:50.219Z,1.30
2019-03-26T01:24:19.813Z,0.60
2019-03-26T01:26:49.733Z,1.03
2019-03-26T01:29:19.355Z,0.97
2019-03-26T01:31:51.758Z,1.10
2019-03-26T01:34:21.526Z,1.03
2019-03-26T01:36:51.530Z,0.90
2019-03-26T01:39:21.158Z,0.93
2019-03-26T01:41:50.683Z,1.10
2019-03-26T01:44:20.783Z,1.20
2019-03-26T01:46:50.921Z,0.83
2019-03-26T01:49:20.702Z,1.07
2019-03-26T01:51:50.971Z,0.90
2019-03-26T01:54:20.612Z,0.90
2019-03-26T01:56:50.210Z,0.80
2019-03-26T01:59:19.789Z,1.07
2019-03-26T02:01:49.795Z,0.83
2019-03-26T02:04:19.390Z,1.10
2019-03-26T02:06:49.487Z,0.90
2019-03-26T02:09:19.055Z,1.00
2019-03-26T02:11:48.657Z,1.30
2019-03-26T02:14:18.603Z,1.00
2019-03-26T02:16:48.444Z,0.93
2019-03-26T02:19:18.429Z,0.80
2019-03-26T02:21:48.035Z,0.80
2019-03-26T02:24:18.086Z,0.87
2019-03-26T02:26:47.606Z,1.00
2019-03-26T02:29:17.215Z,0.70
2019-03-26T02:31:47.220Z,0.70
2019-03-26T02:34:16.900Z,0.80
2019-03-26T02:36:47.197Z,0.80
2019-03-26T02:39:16.730Z,0.50
2019-03-26T02:41:46.315Z,0.90
2019-03-26T02:44:15.832Z,1.30
2019-03-26T02:46:45.792Z,1.00
2019-03-26T02:49:15.947Z,1.23
2019-03-26T02:51:45.777Z,1.27
2019-03-26T02:54:15.416Z,1.40
2019-03-26T02:56:44.973Z,0.90
2019-03-26T02:59:14.619Z,1.00
2019-03-26T03:01:44.972Z,0.90
2019-03-26T03:04:14.569Z,1.10
2019-03-26T03:06:44.331Z,1.20
2019-03-26T03:09:13.947Z,0.80
2019-03-26T03:11:43.863Z,1.10
2019-03-26T03:14:13.774Z,1.80
2019-03-26T03:16:44.435Z,1.73
2019-03-26T03:19:16.040Z,0.93
2019-03-26T03:21:45.515Z,1.20
2019-03-26T03:24:15.394Z,0.77
2019-03-26T03:26:44.908Z,1.10
2019-03-26T03:29:14.702Z,1.23
2019-03-26T03:31:44.539Z,0.70
2019-03-26T03:34:14.787Z,0.93
2019-03-26T03:36:44.304Z,1.10
2019-03-26T03:39:14.023Z,1.10
2019-03-26T03:41:43.612Z,0.90
2019-03-26T03:44:13.123Z,0.70
2019-03-26T03:46:43.335Z,1.30
2019-03-26T03:49:13.267Z,0.80
2019-03-26T03:51:43.183Z,0.80
2019-03-26T03:54:13.108Z,1.23
2019-03-26T03:56:42.701Z,1.30
2019-03-26T03:59:12.796Z,1.23
2019-03-26T04:01:43.323Z,1.13
2019-03-26T04:04:13.366Z,0.53
2019-03-26T04:06:43.414Z,0.83
2019-03-26T04:09:13.095Z,0.83
2019-03-26T04:11:42.807Z,1.07
2019-03-26T04:14:12.828Z,0.87
2019-03-26T04:16:42.858Z,0.90
2019-03-26T04:19:13.063Z,1.07
2019-03-26T04:21:42.822Z,1.07
2019-03-26T04:24:12.735Z,1.10
2019-03-26T04:26:42.293Z,0.97
2019-03-26T04:29:11.903Z,0.70
2019-03-26T04:31:42.145Z,1.30
2019-03-26T04:34:11.740Z,1.00
2019-03-26T04:36:41.408Z,1.10
2019-03-26T04:39:11.313Z,0.90
2019-03-26T04:41:40.893Z,1.00
2019-03-26T04:44:10.646Z,1.10
2019-03-26T04:46:40.950Z,1.10
2019-03-26T04:49:10.677Z,1.13
2019-03-26T04:51:40.282Z,1.20
2019-03-26T04:54:09.891Z,0.90
2019-03-26T04:56:39.493Z,0.83
2019-03-26T04:59:09.070Z,1.13
2019-03-26T05:01:39.080Z,0.77
2019-03-26T05:04:09.151Z,0.87
2019-03-26T05:06:39.163Z,0.90
2019-03-26T05:09:08.755Z,1.00
2019-03-26T05:11:38.331Z,1.27
2019-03-26T05:14:08.274Z,0.83
2019-03-26T05:16:38.559Z,1.33
2019-03-26T05:19:08.329Z,0.90
2019-03-26T05:21:38.354Z,0.87
2019-03-26T05:24:08.287Z,0.90
2019-03-26T05:26:37.814Z,1.10
2019-03-26T05:29:07.670Z,1.20
2019-03-26T05:31:37.426Z,0.77
2019-03-26T05:34:07.546Z,0.90
2019-03-26T05:36:50.422Z,0.90
2019-03-26T05:39:08.977Z,1.07
2019-03-26T05:41:38.491Z,1.30
2019-03-26T05:44:08.098Z,1.13
2019-03-26T05:46:38.026Z,0.73
2019-03-26T05:49:07.971Z,0.70
2019-03-26T05:51:37.955Z,1.10
2019-03-26T05:54:07.567Z,1.13
2019-03-26T05:56:37.155Z,1.40
2019-03-26T05:59:06.742Z,0.80
2019-03-26T06:01:36.989Z,1.00
2019-03-26T06:04:06.503Z,1.00
2019-03-26T06:06:36.027Z,1.20
2019-03-26T06:09:06.590Z,1.20
2019-03-26T06:11:36.781Z,0.97
2019-03-26T06:14:06.730Z,1.10
2019-03-26T06:16:38.487Z,0.90
2019-03-26T06:19:09.092Z,0.80
2019-03-26T06:21:38.866Z,0.90
2019-03-26T06:24:08.516Z,0.90
2019-03-26T06:26:38.230Z,0.77
2019-03-26T06:29:07.814Z,1.00
2019-03-26T06:31:37.811Z,0.90
2019-03-26T06:34:10.387Z,0.67
2019-03-26T06:36:39.359Z,1.00
2019-03-26T06:39:09.842Z,1.30
2019-03-26T06:41:39.583Z,1.17
2019-03-26T06:44:09.206Z,0.80
2019-03-26T06:46:39.426Z,1.00
2019-03-26T06:49:09.195Z,0.80
2019-03-26T06:51:39.197Z,0.83
2019-03-26T06:54:08.819Z,0.87
2019-03-26T06:56:38.535Z,1.00
2019-03-26T06:59:08.048Z,1.03
2019-03-26T07:01:37.985Z,0.83
2019-03-26T07:04:07.571Z,1.07
2019-03-26T07:06:37.165Z,0.90
2019-03-26T07:09:07.954Z,1.37
2019-03-26T07:11:38.034Z,1.20
2019-03-26T07:14:08.746Z,1.00
2019-03-26T07:16:38.694Z,1.10
2019-03-26T07:19:08.471Z,0.73
2019-03-26T07:21:49.065Z,1.00
2019-03-26T07:24:10.221Z,1.10
2019-03-26T07:26:39.814Z,1.20
2019-03-26T07:29:09.321Z,0.70
2019-03-26T07:31:39.619Z,1.23
2019-03-26T07:34:09.156Z,0.97
2019-03-26T07:36:39.089Z,0.90
2019-03-26T07:39:08.714Z,1.10
2019-03-26T07:41:38.938Z,1.07
2019-03-26T07:44:08.530Z,0.90
2019-03-26T07:46:38.583Z,0.83
2019-03-26T07:49:08.749Z,1.00
2019-03-26T07:51:38.266Z,0.70
2019-03-26T07:54:07.797Z,1.10
2019-03-26T07:56:37.569Z,1.40
2019-03-26T07:59:07.405Z,0.60
2019-03-26T08:01:38.066Z,0.90
2019-03-26T08:04:08.185Z,0.83
2019-03-26T08:06:38.019Z,0.77
2019-03-26T08:09:07.818Z,1.00
2019-03-26T08:11:37.672Z,0.93
2019-03-26T08:14:07.641Z,1.13
2019-03-26T08:16:37.677Z,0.87
2019-03-26T08:19:07.323Z,0.90
2019-03-26T08:21:37.886Z,0.80
2019-03-26T08:24:07.510Z,0.90
2019-03-26T08:26:37.326Z,0.73
2019-03-26T08:29:06.785Z,0.80
2019-03-26T08:31:36.934Z,0.80
2019-03-26T08:34:06.762Z,1.00
2019-03-26T08:36:36.402Z,0.63
2019-03-26T08:39:07.134Z,0.50
2019-03-26T08:41:36.718Z,1.23
2019-03-26T08:44:06.321Z,0.67
2019-03-26T08:46:36.134Z,0.90
2019-03-26T08:49:05.879Z,0.80
2019-03-26T08:51:36.502Z,1.20
2019-03-26T08:54:06.038Z,0.77
2019-03-26T08:56:35.797Z,1.00
2019-03-26T08:59:05.446Z,0.93
2019-03-26T09:01:35.374Z,0.90
2019-03-26T09:04:05.362Z,0.90
2019-03-26T09:06:34.942Z,1.00
2019-03-26T09:09:06.379Z,0.87
2019-03-26T09:11:36.511Z,1.07
2019-03-26T09:14:06.097Z,1.27
2019-03-26T09:16:36.124Z,1.07
2019-03-26T09:19:05.767Z,1.00
2019-03-26T09:21:35.387Z,0.80
2019-03-26T09:24:05.642Z,0.90
2019-03-26T09:26:35.226Z,1.10
2019-03-26T09:29:04.749Z,0.83
2019-03-26T09:31:34.659Z,0.80
2019-03-26T09:34:04.424Z,0.80
2019-03-26T09:36:34.418Z,1.40
2019-03-26T09:39:05.434Z,1.23
2019-03-26T09:41:34.962Z,1.40
2019-03-26T09:44:04.678Z,1.33
2019-03-26T09:46:35.162Z,1.30
2019-03-26T09:49:04.860Z,0.70
2019-03-26T09:51:34.447Z,0.90
2019-03-26T09:54:04.679Z,0.93
2019-03-26T09:56:34.564Z,0.87
2019-03-26T09:59:04.144Z,1.17
2019-03-26T10:01:34.428Z,0.80
2019-03-26T10:04:04.603Z,1.03
2019-03-26T10:06:34.222Z,1.17
2019-03-26T10:09:04.407Z,1.13
2019-03-26T10:11:34.179Z,1.17
2019-03-26T10:14:03.775Z,0.70
2019-03-26T10:16:33.920Z,1.00
2019-03-26T10:19:03.699Z,1.00
2019-03-26T10:21:33.291Z,0.87
2019-03-26T10:24:03.212Z,1.13
2019-03-26T10:26:33.038Z,0.80
2019-03-26T10:29:15.381Z,0.87
2019-03-26T10:31:34.622Z,0.93
2019-03-26T10:34:04.409Z,0.60
2019-03-26T10:36:34.062Z,0.80
2019-03-26T10:39:05.285Z,0.73
2019-03-26T10:41:35.442Z,1.23
2019-03-26T10:44:05.975Z,1.00
2019-03-26T10:46:36.255Z,1.10
2019-03-26T10:49:06.412Z,0.97
2019-03-26T10:51:36.422Z,1.00
2019-03-26T10:54:06.028Z,0.97
2019-03-26T10:56:35.614Z,1.10
2019-03-26T10:59:05.223Z,1.27
2019-03-26T11:01:36.042Z,0.70
2019-03-26T11:04:07.685Z,0.57
2019-03-26T11:06:37.898Z,0.80
2019-03-26T11:09:23.048Z,0.80
2019-03-26T11:11:40.956Z,0.80
2019-03-26T11:14:10.674Z,1.00
2019-03-26T11:16:40.440Z,0.90
2019-03-26T11:19:10.879Z,1.00
2019-03-26T11:21:41.354Z,0.90
2019-03-26T11:24:11.405Z,1.00
2019-03-26T11:26:40.982Z,0.63
2019-03-26T11:29:10.587Z,0.87
2019-03-26T11:31:40.505Z,0.80
2019-03-26T11:34:10.074Z,0.77
2019-03-26T11:36:40.031Z,1.00
2019-03-26T11:39:09.854Z,0.90
2019-03-26T11:41:39.742Z,0.70
2019-03-26T11:44:09.350Z,1.13
2019-03-26T11:46:39.710Z,1.00
2019-03-26T11:49:09.414Z,0.83
2019-03-26T11:51:39.490Z,1.10
2019-03-26T11:54:09.041Z,0.63
2019-03-26T11:56:38.729Z,1.00
2019-03-26T11:59:08.342Z,1.00
2019-03-26T12:01:38.576Z,1.00
2019-03-26T12:04:09.525Z,0.83
2019-03-26T12:06:39.512Z,0.93
2019-03-26T12:09:09.356Z,0.90
2019-03-26T12:11:38.922Z,0.70
2019-03-26T12:14:08.946Z,0.80
2019-03-26T12:16:39.049Z,0.90
2019-03-26T12:19:08.654Z,1.00
2019-03-26T12:21:38.275Z,1.10
2019-03-26T12:24:08.722Z,1.10
2019-03-26T12:26:38.887Z,0.67
2019-03-26T12:29:08.818Z,0.67
2019-03-26T12:31:38.990Z,0.70
2019-03-26T12:34:09.089Z,0.70
2019-03-26T12:36:40.139Z,0.80
2019-03-26T12:39:10.144Z,0.90
2019-03-26T12:41:39.796Z,1.00
2019-03-26T12:44:09.407Z,1.13
2019-03-26T12:46:39.285Z,1.07
2019-03-26T12:49:08.976Z,0.83
2019-03-26T12:51:39.397Z,1.03
2019-03-26T12:54:09.192Z,0.77
2019-03-26T12:56:39.447Z,0.90
2019-03-26T12:59:08.995Z,1.00
2019-03-26T13:01:38.798Z,1.00
2019-03-26T13:04:12.881Z,0.70
2019-03-26T13:06:39.868Z,0.80
2019-03-26T13:09:10.729Z,0.97
2019-03-26T13:11:40.330Z,0.63
2019-03-26T13:14:09.930Z,0.83
2019-03-26T13:16:39.770Z,0.77
2019-03-26T13:19:09.686Z,0.70
2019-03-26T13:21:39.618Z,1.27
2019-03-26T13:24:11.500Z,0.70
2019-03-26T13:26:41.231Z,0.90
2019-03-26T13:29:10.844Z,0.70
2019-03-26T13:31:41.118Z,0.90
2019-03-26T13:34:10.751Z,0.90
2019-03-26T13:36:40.777Z,1.00
2019-03-26T13:39:11.013Z,0.80
2019-03-26T13:41:41.230Z,0.90
2019-03-26T13:44:10.897Z,0.70
2019-03-26T13:46:41.198Z,0.90
2019-03-26T13:49:11.910Z,0.70
2019-03-26T13:51:41.627Z,0.70
2019-03-26T13:54:11.279Z,1.00
2019-03-26T13:56:40.881Z,0.73
2019-03-26T13:59:10.489Z,1.00
2019-03-26T14:01:40.677Z,0.80
2019-03-26T14:04:10.442Z,0.70
2019-03-26T14:06:40.359Z,0.90
2019-03-26T14:09:10.220Z,0.90
2019-03-26T14:11:39.809Z,0.60
2019-03-26T14:14:09.636Z,0.70
2019-03-26T14:16:39.851Z,0.70
2019-03-26T14:19:10.166Z,1.10
2019-03-26T14:21:39.766Z,0.83
2019-03-26T14:24:13.054Z,0.70
2019-03-26T14:26:41.231Z,0.70
2019-03-26T14:29:11.501Z,0.90
2019-03-26T14:31:41.478Z,0.90
2019-03-26T14:34:11.071Z,0.50
2019-03-26T14:36:40.676Z,0.97
2019-03-26T14:39:11.086Z,1.00
2019-03-26T14:41:40.924Z,0.77
2019-03-26T14:44:10.502Z,1.00
2019-03-26T14:46:40.920Z,0.87
2019-03-26T14:49:10.756Z,0.80
2019-03-26T14:51:40.389Z,0.97
2019-03-26T14:54:10.350Z,0.77
2019-03-26T14:56:39.946Z,1.00
2019-03-26T14:59:09.559Z,0.80
2019-03-26T15:01:39.827Z,1.40
2019-03-26T15:04:10.017Z,1.00
2019-03-26T15:06:39.587Z,0.57
2019-03-26T15:09:10.054Z,0.70
2019-03-26T15:11:40.281Z,0.57
2019-03-26T15:14:10.643Z,0.80
2019-03-26T15:16:40.857Z,1.17
2019-03-26T15:19:12.779Z,0.90
2019-03-26T15:21:42.419Z,0.70
2019-03-26T15:24:12.459Z,0.87
2019-03-26T15:26:42.520Z,0.73
2019-03-26T15:29:12.851Z,1.13
2019-03-26T15:31:42.823Z,1.10
2019-03-26T15:34:12.602Z,0.90
2019-03-26T15:36:42.231Z,0.80
2019-03-26T15:39:11.895Z,0.97
2019-03-26T15:41:41.445Z,0.87
2019-03-26T15:44:10.960Z,1.17
2019-03-26T15:46:41.961Z,0.90
2019-03-26T15:49:11.511Z,1.10
2019-03-26T15:51:41.751Z,0.70
2019-03-26T15:54:11.470Z,1.10
2019-03-26T15:56:41.410Z,0.80
2019-03-26T15:59:11.090Z,0.97
2019-03-26T16:01:41.465Z,0.93
2019-03-26T16:04:11.238Z,0.93
2019-03-26T16:06:41.347Z,0.97
2019-03-26T16:09:11.198Z,0.80
2019-03-26T16:11:40.780Z,0.90
2019-03-26T16:14:10.394Z,0.73
2019-03-26T16:16:40.437Z,0.70
2019-03-26T16:19:10.478Z,1.13
2019-03-26T16:21:40.857Z,0.77
2019-03-26T16:24:10.676Z,1.00
2019-03-26T16:26:40.262Z,0.83
2019-03-26T16:29:09.867Z,0.70
2019-03-26T16:31:39.959Z,0.90
2019-03-26T16:34:09.571Z,1.10
2019-03-26T16:36:39.130Z,0.97
2019-03-26T16:39:09.159Z,1.00
2019-03-26T16:41:48.354Z,1.00
2019-03-26T16:44:10.754Z,1.07
2019-03-26T16:46:42.654Z,1.00
2019-03-26T16:49:12.738Z,1.30
2019-03-26T16:51:42.403Z,1.17
2019-03-26T16:54:12.398Z,0.70
2019-03-26T16:56:42.339Z,1.20
2019-03-26T16:59:13.518Z,1.20
2019-03-26T17:01:43.678Z,1.30
2019-03-26T17:04:14.026Z,1.07
2019-03-26T17:06:44.172Z,1.43
2019-03-26T17:09:13.830Z,1.00
2019-03-26T17:11:43.360Z,1.10
2019-03-26T17:14:13.815Z,1.00
2019-03-26T17:16:44.080Z,0.83
2019-03-26T17:19:13.764Z,1.00
2019-03-26T17:21:43.357Z,1.20
2019-03-26T17:24:12.926Z,1.23
2019-03-26T17:26:42.445Z,1.20
2019-03-26T17:29:12.575Z,1.03
2019-03-26T17:31:42.763Z,1.13
2019-03-26T17:34:12.715Z,1.07
2019-03-26T17:36:42.306Z,1.00
2019-03-26T17:39:11.957Z,1.17
2019-03-26T17:41:41.470Z,1.20
2019-03-26T17:44:11.081Z,1.00
2019-03-26T17:46:41.846Z,0.80
2019-03-26T17:49:11.440Z,1.00
2019-03-26T17:51:41.382Z,1.00
2019-03-26T17:54:11.253Z,0.93
2019-03-26T17:56:40.827Z,0.80
2019-03-26T17:59:10.351Z,0.90
2019-03-26T18:01:40.474Z,1.37
2019-03-26T18:04:10.069Z,1.10
2019-03-26T18:06:39.926Z,0.90
2019-03-26T18:09:09.459Z,1.20
2019-03-26T18:11:39.126Z,0.83
2019-03-26T18:14:08.722Z,1.27
2019-03-26T18:16:39.643Z,0.87
2019-03-26T18:19:09.568Z,0.90
2019-03-26T18:21:50.881Z,1.00
2019-03-26T18:24:10.838Z,0.73
2019-03-26T18:26:41.142Z,1.10
2019-03-26T18:29:10.646Z,1.10
2019-03-26T18:31:40.494Z,1.07
2019-03-26T18:34:10.435Z,0.97
2019-03-26T18:36:40.006Z,1.00
2019-03-26T18:39:11.027Z,1.07
2019-03-26T18:41:40.641Z,0.90
2019-03-26T18:44:10.238Z,1.00
2019-03-26T18:46:40.475Z,1.27
2019-03-26T18:49:10.537Z,0.80
2019-03-26T18:51:40.463Z,0.90
2019-03-26T18:54:10.042Z,1.20
2019-03-26T18:56:39.636Z,1.10
2019-03-26T18:59:09.222Z,1.10
2019-03-26T19:01:39.006Z,0.97
2019-03-26T19:04:09.094Z,1.00
2019-03-26T19:06:39.102Z,0.97
2019-03-26T19:09:09.138Z,1.23
2019-03-26T19:11:38.735Z,1.60
2019-03-26T19:14:08.854Z,1.30
2019-03-26T19:16:38.794Z,1.33
2019-03-26T19:19:08.577Z,1.10
2019-03-26T19:21:38.562Z,1.27
2019-03-26T19:24:08.851Z,1.30
2019-03-26T19:26:38.443Z,1.00
2019-03-26T19:29:08.116Z,1.10
2019-03-26T19:31:37.805Z,1.00
2019-03-26T19:34:07.537Z,1.33
2019-03-26T19:36:37.673Z,1.37
2019-03-26T19:39:09.558Z,1.40
2019-03-26T19:41:39.165Z,1.10
2019-03-26T19:44:08.805Z,1.20
2019-03-26T19:46:39.000Z,1.53
2019-03-26T19:49:08.858Z,1.20
2019-03-26T19:51:38.446Z,1.27
2019-03-26T19:54:08.081Z,1.47
2019-03-26T19:56:37.602Z,1.10
2019-03-26T19:59:07.594Z,1.10
2019-03-26T20:01:37.754Z,1.40
2019-03-26T20:04:07.934Z,1.30
2019-03-26T20:06:37.769Z,1.50
2019-03-26T20:09:08.427Z,1.17
2019-03-26T20:11:38.368Z,1.50
2019-03-26T20:14:08.134Z,1.27
2019-03-26T20:16:42.166Z,1.10
2019-03-26T20:19:09.540Z,1.13
2019-03-26T20:21:39.464Z,1.43
2019-03-26T20:24:09.229Z,1.03
2019-03-26T20:26:38.830Z,1.60
2019-03-26T20:29:08.583Z,1.47
2019-03-26T20:31:38.206Z,1.30
2019-03-26T20:34:07.806Z,1.23
2019-03-26T20:36:37.403Z,1.13
2019-03-26T20:39:08.104Z,1.30
2019-03-26T20:41:37.798Z,1.30
2019-03-26T20:44:07.876Z,1.30
2019-03-26T20:46:38.155Z,1.40
2019-03-26T20:49:07.922Z,1.30
2019-03-26T20:51:37.904Z,1.57
2019-03-26T20:54:07.498Z,1.73
2019-03-26T20:56:37.103Z,1.30
2019-03-26T20:59:06.620Z,1.57
2019-03-26T21:01:36.721Z,1.27
2019-03-26T21:04:07.179Z,1.30
2019-03-26T21:06:36.770Z,1.90
2019-03-26T21:09:08.283Z,1.83
2019-03-26T21:11:37.925Z,1.37
2019-03-26T21:14:13.398Z,1.40
2019-03-26T21:16:44.066Z,1.80
2019-03-26T21:19:13.657Z,1.70
2019-03-26T21:21:43.376Z,1.40
2019-03-26T21:24:13.477Z,1.43
2019-03-26T21:26:43.000Z,0.90
2019-03-26T21:29:12.630Z,1.17
2019-03-26T21:31:42.398Z,1.33
2019-03-26T21:34:11.991Z,1.40
2019-03-26T21:36:41.599Z,1.30
2019-03-26T21:39:11.596Z,1.20
2019-03-26T21:41:41.186Z,1.30
2019-03-26T21:44:10.850Z,1.20
2019-03-26T21:46:41.041Z,1.37
2019-03-26T21:49:10.792Z,1.33
2019-03-26T21:51:41.231Z,1.20
2019-03-26T21:54:10.918Z,1.60
2019-03-26T21:56:40.510Z,1.80
2019-03-26T21:59:10.158Z,1.40
2019-03-26T22:01:40.151Z,1.63
2019-03-26T22:04:10.074Z,1.47
2019-03-26T22:06:39.709Z,1.47
2019-03-26T22:09:09.323Z,1.37
2019-03-26T22:11:49.214Z,1.53
2019-03-26T22:14:17.782Z,1.63
2019-03-26T22:16:42.486Z,1.60
2019-03-26T22:19:13.702Z,1.57
2019-03-26T22:21:43.684Z,1.60
2019-03-26T22:24:16.908Z,1.67
2019-03-26T22:26:44.927Z,1.60
2019-03-26T22:29:14.954Z,1.37
2019-03-26T22:31:45.119Z,1.60
2019-03-26T22:34:14.711Z,1.70
2019-03-26T22:36:44.245Z,1.87
2019-03-26T22:39:13.922Z,1.60
2019-03-26T22:41:43.493Z,1.40
2019-03-26T22:44:13.207Z,1.50
2019-03-26T22:46:42.734Z,2.00
2019-03-26T22:49:12.247Z,1.87
2019-03-26T22:51:42.018Z,1.70
2019-03-26T22:54:11.607Z,1.63
2019-03-26T22:56:41.222Z,1.70
2019-03-26T22:59:10.866Z,1.83
2019-03-26T23:01:41.130Z,2.00
2019-03-26T23:04:11.154Z,1.60
2019-03-26T23:06:41.206Z,1.60
2019-03-26T23:09:10.802Z,1.57
2019-03-26T23:11:40.523Z,1.97
2019-03-26T23:14:11.387Z,1.70
2019-03-26T23:16:41.182Z,1.80
2019-03-26T23:19:11.162Z,2.10
2019-03-26T23:21:40.774Z,2.17
2019-03-26T23:24:10.419Z,1.93
2019-03-26T23:26:39.997Z,2.07
2019-03-26T23:29:09.958Z,2.20
2019-03-26T23:31:40.123Z,2.30
2019-03-26T23:34:09.723Z,1.87
2019-03-26T23:36:39.331Z,1.90
2019-03-26T23:39:08.936Z,1.87
2019-03-26T23:41:39.934Z,2.00
2019-03-26T23:44:09.848Z,2.40
2019-03-26T23:46:39.441Z,2.30
2019-03-26T23:49:09.077Z,2.53
2019-03-26T23:51:38.594Z,2.20
2019-03-26T23:54:08.386Z,1.97
2019-03-26T23:56:38.211Z,1.73
2019-03-26T23:59:08.270Z,2.30
